Time;durP1;ratioP1;P1;durP2;ratioP2;P2;SDS_P1;SDS_P2;PMS_P1;PMS_P2;Temp;Humidity;BMP_temperature;BMP_pressure;BME280_temperature;BME280_humidity;BME280_pressure;Samples;Min_cycle;Max_cycle;Signal;HPM_P1;HPM_P2
2023/12/27 00:01:42;;;;;;;9.40;4.20;;;;;;;0.17;64.20;98041.28;5021006;28;20049;-78
2023/12/27 00:04:13;;;;;;;9.80;3.95;;;;;;;0.18;64.55;98044.72;5057042;28;20047;-77
2023/12/27 00:06:46;;;;;;;6.97;4.07;;;;;;;-0.54;64.84;97923.31;5058671;28;20041;-79
2023/12/27 00:09:17;;;;;;;9.63;4.72;;;;;;;-0.49;64.45;97948.06;5044206;28;20045;-79
2023/12/27 00:11:44;;;;;;;8.02;4.05;;;;;;;-0.42;65.12;97941.28;5044040;28;20032;-78
2023/12/27 00:14:13;;;;;;;8.23;4.22;;;;;;;-0.74;64.94;97895.94;5060750;28;20104;-79
2023/12/27 00:16:40;;;;;;;8.85;4.05;;;;;;;-0.75;65.11;97881.47;5044960;28;20045;-78
2023/12/27 00:19:12;;;;;;;;;;;;;;;0.24;64.95;98037.94;5062361;28;20056;-79
2023/12/27 00:21:40;;;;;;;7.25;3.47;;;;;;;0.20;64.92;98046.44;5063232;28;19916;-78
2023/12/27 00:24:10;;;;;;;8.02;3.85;;;;;;;-0.02;65.13;98005.41;5043411;28;20050;-80
2023/12/27 00:26:46;;;;;;;10.38;4.05;;;;;;;-0.21;65.16;97970.38;5045322;28;20038;-80
2023/12/27 00:29:13;;;;;;;7.10;3.90;;;;;;;0.08;64.86;98028.47;5055150;28;20087;-78
2023/12/27 00:31:39;;;;;;;7.10;4.28;;;;;;;0.01;65.22;98008.81;5059910;28;20048;-78
2023/12/27 00:34:09;;;;;;;10.90;4.63;;;;;;;0.10;65.14;98019.97;5072973;28;20048;-79
2023/12/27 00:36:38;;;;;;;9.52;4.40;;;;;;;0.10;65.32;98026.78;5060772;28;20029;-78
2023/12/27 00:39:08;;;;;;;7.70;3.92;;;;;;;0.18;65.40;98016.59;5044059;28;20040;-78
2023/12/27 00:41:39;;;;;;;7.30;3.90;;;;;;;0.15;65.30;98002.06;5030033;28;20041;-79
2023/12/27 00:44:06;;;;;;;8.38;4.25;;;;;;;0.21;65.71;98011.50;5042009;28;20057;-74
2023/12/27 00:46:35;;;;;;;9.90;4.55;;;;;;;0.27;65.46;98003.81;5042590;28;20037;-75
2023/12/27 00:49:01;;;;;;;8.52;4.10;;;;;;;0.24;65.15;97986.75;5041075;28;20045;-76
2023/12/27 00:51:28;;;;;;;8.38;4.28;;;;;;;0.44;65.00;98019.25;5041337;28;20056;-74
2023/12/27 00:54:00;;;;;;;7.75;4.18;;;;;;;0.06;64.97;97958.56;5042400;28;20036;-75
2023/12/27 00:56:36;;;;;;;11.07;4.90;;;;;;;0.40;65.32;98012.38;5091389;28;20048;-78
2023/12/27 00:59:08;;;;;;;8.30;4.45;;;;;;;-0.11;65.02;97923.50;5054803;28;20047;-77
2023/12/27 01:01:35;;;;;;;7.32;4.03;;;;;;;0.40;65.13;97991.91;5057765;28;20171;-76
2023/12/27 01:04:04;;;;;;;9.68;4.65;;;;;;;0.17;65.03;97948.38;5056418;28;20045;-76
2023/12/27 01:06:36;;;;;;;10.27;4.63;;;;;;;-0.29;64.70;97878.31;5061004;28;20041;-75
2023/12/27 01:09:08;;;;;;;8.32;4.55;;;;;;;0.19;65.74;97931.31;5074091;28;20496;-76
2023/12/27 01:11:52;;;;;;;8.73;4.60;;;;;;;0.36;65.00;97968.03;5054373;28;20037;-77
2023/12/27 01:14:20;;;;;;;9.18;5.10;;;;;;;0.73;64.86;98015.91;5074773;28;20044;-75
2023/12/27 01:16:52;;;;;;;7.88;4.28;;;;;;;0.80;65.13;98027.00;5039960;28;20557;-77
2023/12/27 01:19:31;;;;;;;10.38;4.43;;;;;;;0.85;65.06;98026.16;5040081;28;20041;-75
2023/12/27 01:21:57;;;;;;;8.82;4.20;;;;;;;0.78;64.47;98014.19;5058213;28;20056;-79
2023/12/27 01:24:23;;;;;;;10.70;4.63;;;;;;;0.80;64.80;98014.22;5067191;28;20048;-77
2023/12/27 01:26:53;;;;;;;10.73;4.43;;;;;;;0.23;65.04;97903.19;5056475;28;20045;-75
2023/12/27 01:29:19;;;;;;;7.90;4.32;;;;;;;0.67;64.95;97960.41;5059921;28;20041;-77
2023/12/27 01:31:50;;;;;;;7.70;4.20;;;;;;;1.07;64.72;98023.63;5057199;28;20060;-76
2023/12/27 01:34:18;;;;;;;8.73;4.28;;;;;;;0.80;65.02;97992.00;5058007;28;20047;-76
2023/12/27 01:36:47;;;;;;;9.48;5.38;;;;;;;1.01;64.95;97995.44;5056301;28;20123;-75
2023/12/27 01:39:14;;;;;;;8.02;4.30;;;;;;;1.20;64.89;98016.81;5058034;28;20044;-75
2023/12/27 01:41:57;;;;;;;8.40;4.35;;;;;;;1.24;64.64;98012.53;5039204;28;20043;-77
2023/12/27 01:44:24;;;;;;;9.57;4.45;;;;;;;1.17;64.63;97980.94;5060036;28;20044;-80
2023/12/27 01:46:54;;;;;;;7.45;4.57;;;;;;;1.29;64.53;98006.56;5026216;28;20124;-81
2023/12/27 01:49:35;;;;;;;8.65;4.15;;;;;;;1.26;64.54;98005.69;5042562;28;20041;-81
2023/12/27 01:52:01;;;;;;;8.73;4.25;;;;;;;0.97;64.31;97934.84;5060154;28;20109;-81
2023/12/27 01:54:30;;;;;;;11.90;4.63;;;;;;;1.44;64.03;97998.00;5058722;28;20093;-81
2023/12/27 01:57:02;;;;;;;7.13;4.22;;;;;;;1.14;63.85;97952.75;5075563;28;20091;-84
2023/12/27 01:59:32;;;;;;;8.23;4.15;;;;;;;1.56;64.38;98019.38;5062872;28;20037;-84
2023/12/27 02:02:01;;;;;;;9.38;4.38;;;;;;;1.16;64.41;97944.22;5073037;28;20036;-85
2023/12/27 02:04:30;;;;;;;11.25;4.82;;;;;;;1.47;64.17;97990.31;5062347;28;20096;-81
2023/12/27 02:07:07;;;;;;;8.05;4.75;;;;;;;1.45;64.43;97989.44;5065596;28;20048;-82
2023/12/27 02:09:40;;;;;;;7.80;4.22;;;;;;;1.67;64.07;98017.63;5066021;28;20487;-82
2023/12/27 02:12:07;;;;;;;8.52;4.50;;;;;;;1.54;63.96;98001.44;5044824;28;20048;-81
2023/12/27 02:14:38;;;;;;;9.25;4.85;;;;;;;1.62;64.12;97997.13;5060655;28;20127;-81
2023/12/27 02:17:05;;;;;;;9.25;4.90;;;;;;;1.49;63.27;97993.72;5042754;28;20063;-79
2023/12/27 02:19:44;;;;;;;10.90;4.75;;;;;;;1.31;63.94;97986.06;5071069;28;20045;-78
2023/12/27 02:22:15;;;;;;;10.18;4.70;;;;;;;1.36;63.89;98002.28;5086952;28;20033;-78
2023/12/27 02:24:42;;;;;;;8.02;4.38;;;;;;;1.44;63.94;98008.25;5063441;28;20048;-83
2023/12/27 02:27:20;;;;;;;9.85;4.78;;;;;;;1.10;63.92;97945.94;5047977;28;20522;-82
2023/12/27 02:29:59;;;;;;;8.70;4.18;;;;;;;0.79;63.80;97912.63;5064317;28;20041;-83
2023/12/27 02:32:26;;;;;;;9.77;4.63;;;;;;;1.50;63.77;98017.66;5046635;28;20526;-79
2023/12/27 02:34:52;;;;;;;10.65;5.22;;;;;;;1.22;64.08;97965.53;5066720;28;20527;-82
2023/12/27 02:37:22;;;;;;;9.23;4.32;;;;;;;1.42;63.65;97991.16;5061988;28;20044;-76
2023/12/27 02:39:48;;;;;;;9.20;4.82;;;;;;;1.15;63.86;97937.38;5042538;28;20530;-76
2023/12/27 02:42:15;;;;;;;8.60;4.78;;;;;;;1.29;63.86;97970.69;5040480;28;20161;-78
2023/12/27 02:44:44;;;;;;;8.55;4.57;;;;;;;0.82;64.10;97890.44;5040199;28;20056;-77
2023/12/27 02:47:17;;;;;;;11.73;5.07;;;;;;;1.53;64.15;98003.97;5042960;28;20045;-78
2023/12/27 02:49:47;;;;;;;8.50;4.82;;;;;;;1.64;64.11;98022.78;5039472;28;20499;-76
2023/12/27 02:52:13;;;;;;;8.85;4.82;;;;;;;1.12;64.49;97941.63;5053687;28;20055;-77
2023/12/27 02:54:45;;;;;;;9.10;4.43;;;;;;;1.50;64.22;98008.25;5055543;28;20056;-76
2023/12/27 02:57:14;;;;;;;11.20;4.95;;;;;;;1.45;64.35;98007.41;5056200;28;20044;-76
2023/12/27 02:59:41;;;;;;;10.32;4.88;;;;;;;1.10;64.22;97954.47;5058234;28;20044;-77
2023/12/27 03:02:07;;;;;;;9.18;5.05;;;;;;;1.55;64.66;98013.38;5027877;28;20484;-77
2023/12/27 03:04:34;;;;;;;10.52;5.20;;;;;;;1.12;64.29;97950.19;5054566;28;20045;-77
2023/12/27 03:07:03;;;;;;;8.88;5.05;;;;;;;1.54;64.49;98027.06;5043168;28;20479;-76
2023/12/27 03:09:36;;;;;;;8.80;4.55;;;;;;;1.44;64.34;98007.41;5079693;28;20051;-78
2023/12/27 03:12:07;;;;;;;9.85;5.10;;;;;;;1.49;64.93;98024.50;5028481;28;20037;-77
2023/12/27 03:14:34;;;;;;;8.90;4.60;;;;;;;1.38;64.49;98002.28;5057636;28;20037;-77
2023/12/27 03:17:03;;;;;;;8.10;4.53;;;;;;;1.25;64.99;97975.81;5046071;28;20037;-78
2023/12/27 03:19:30;;;;;;;9.68;5.00;;;;;;;1.16;65.15;97953.59;5028425;28;20096;-77
2023/12/27 03:21:58;;;;;;;8.25;4.70;;;;;;;1.04;64.87;97934.84;5059903;28;20037;-76
2023/12/27 03:24:30;;;;;;;12.68;4.82;;;;;;;0.97;65.06;97924.59;5050402;28;20041;-78
2023/12/27 03:26:56;;;;;;;8.85;4.95;;;;;;;1.01;65.15;97936.53;5062112;28;20139;-78
2023/12/27 03:29:25;;;;;;;8.35;4.72;;;;;;;1.52;64.98;98015.09;5095574;28;20060;-78
2023/12/27 03:31:57;;;;;;;9.97;5.23;;;;;;;1.39;65.57;97992.03;5058178;28;20045;-79
2023/12/27 03:34:25;;;;;;;;;;;;;;;1.48;64.98;98011.69;5045863;28;20125;-83
2023/12/27 03:36:54;;;;;;;11.63;5.65;;;;;;;1.24;65.19;97981.78;5042803;28;19927;-77
2023/12/27 03:39:23;;;;;;;8.35;5.03;;;;;;;1.38;65.10;98015.09;5030470;28;20514;-78
2023/12/27 03:42:04;;;;;;;13.53;5.27;;;;;;;1.32;65.37;97990.34;5047664;28;20045;-79
2023/12/27 03:44:34;;;;;;;10.10;5.35;;;;;;;0.67;65.41;97888.72;5043679;28;20079;-76
2023/12/27 03:47:13;;;;;;;9.68;5.03;;;;;;;1.13;64.86;97977.53;5075429;28;20044;-78
2023/12/27 03:49:40;;;;;;;12.13;5.63;;;;;;;1.29;65.42;97998.88;5041081;28;20048;-79
2023/12/27 03:52:07;;;;;;;12.63;6.38;;;;;;;1.36;65.33;98009.97;5049679;28;20037;-80
2023/12/27 03:54:38;;;;;;;14.48;6.97;;;;;;;1.09;65.21;97959.59;5084116;28;20044;-87
2023/12/27 03:57:23;;;;;;;10.90;6.15;;;;;;;1.25;65.72;97986.91;5073746;28;20072;-89
2023/12/27 03:59:53;;;;;;;10.18;5.13;;;;;;;1.14;65.47;97973.25;5052180;28;20037;-88
2023/12/27 04:02:25;;;;;;;17.25;8.60;;;;;;;1.41;65.72;98021.09;5086195;28;20057;-79
2023/12/27 04:05:04;;;;;;;11.75;5.45;;;;;;;1.14;65.32;97973.25;5077103;28;20135;-80
2023/12/27 04:07:34;;;;;;;11.82;6.70;;;;;;;0.53;65.07;97892.97;5031992;28;20044;-79
2023/12/27 04:10:06;;;;;;;10.88;5.60;;;;;;;1.20;65.84;97991.19;5058182;28;20132;-80
2023/12/27 04:12:33;;;;;;;13.73;6.30;;;;;;;0.97;65.23;97963.84;5029996;28;20049;-81
2023/12/27 04:15:00;;;;;;;10.82;5.25;;;;;;;1.20;65.97;98011.69;5046746;28;20090;-80
2023/12/27 04:17:29;;;;;;;10.95;5.88;;;;;;;1.14;66.05;98004.84;5042584;28;20062;-82
2023/12/27 04:19:59;;;;;;;12.48;6.45;;;;;;;1.20;66.00;98027.94;5063445;28;20043;-82
2023/12/27 04:22:27;;;;;;;12.07;5.80;;;;;;;0.85;65.21;97980.06;5043946;28;20135;-78
2023/12/27 04:25:03;;;;;;;12.43;5.60;;;;;;;0.93;65.70;98015.94;5046254;28;20084;-88
2023/12/27 04:27:35;;;;;;;12.48;6.53;;;;;;;0.59;66.00;97955.28;5086417;28;20040;-89
2023/12/27 04:30:06;;;;;;;14.88;7.15;;;;;;;0.72;65.49;97968.13;5055493;28;20040;-88
2023/12/27 04:32:58;;;;;;;11.73;6.05;;;;;;;1.08;66.28;98027.91;5071284;28;20040;-89
2023/12/27 04:35:36;;;;;;;12.30;5.95;;;;;;;1.03;66.10;98027.91;5097293;28;20041;-89
2023/12/27 04:38:23;;;;;;;10.00;5.53;;;;;;;0.66;65.90;97979.22;5053962;28;20488;-89
2023/12/27 04:41:08;;;;;;;14.25;6.18;;;;;;;0.43;66.35;97940.75;5045068;28;20056;-79
2023/12/27 04:43:42;;;;;;;13.70;5.80;;;;;;;0.86;65.79;98020.19;5064705;28;20128;-82
2023/12/27 04:46:10;;;;;;;13.18;5.35;;;;;;;0.28;65.99;97936.44;5041315;28;20049;-81
2023/12/27 04:48:39;;;;;;;14.68;5.85;;;;;;;0.42;66.48;97946.72;5042260;28;20044;-81
2023/12/27 04:51:09;;;;;;;11.20;6.10;;;;;;;0.92;66.73;98027.03;5044217;28;20036;-80
2023/12/27 04:53:41;;;;;;;13.02;6.70;;;;;;;0.79;67.01;97987.72;5046829;28;20033;-81
2023/12/27 04:56:12;;;;;;;11.93;6.25;;;;;;;0.85;66.49;98000.56;5059016;28;20037;-84
2023/12/27 04:58:48;;;;;;;10.65;5.82;;;;;;;0.78;66.45;97983.47;5048147;28;20042;-80
2023/12/27 05:01:20;;;;;;;12.68;5.97;;;;;;;0.92;66.91;98001.41;5044035;28;20044;-76
2023/12/27 05:03:50;;;;;;;13.75;6.35;;;;;;;0.72;66.48;97965.56;5060516;28;20052;-76
2023/12/27 05:06:17;;;;;;;11.55;5.82;;;;;;;0.49;66.36;97907.50;5061869;28;20049;-76
2023/12/27 05:08:47;;;;;;;13.32;6.43;;;;;;;0.87;66.16;97987.78;5057603;28;20586;-78
2023/12/27 05:11:33;;;;;;;11.95;6.35;;;;;;;0.13;66.51;97860.50;5091399;28;20047;-77
2023/12/27 05:14:06;;;;;;;12.18;6.07;;;;;;;0.35;66.58;97886.13;5054745;28;20578;-77
2023/12/27 05:16:38;;;;;;;14.70;7.30;;;;;;;0.54;66.78;97925.41;5041980;28;20478;-76
2023/12/27 05:19:17;;;;;;;13.43;7.35;;;;;;;0.78;66.57;97937.38;5029246;28;20040;-77
2023/12/27 05:21:48;;;;;;;17.63;7.78;;;;;;;0.78;66.92;97949.34;5058707;28;20060;-76
2023/12/27 05:24:24;;;;;;;16.23;8.10;;;;;;;1.09;66.42;97996.31;5060674;28;20101;-76
2023/12/27 05:26:52;;;;;;;16.92;8.07;;;;;;;0.61;66.68;97937.38;5044423;28;20052;-78
2023/12/27 05:29:21;;;;;;;15.73;7.60;;;;;;;0.47;67.22;97901.50;5059917;28;20040;-77
2023/12/27 05:31:59;;;;;;;13.68;7.47;;;;;;;0.82;66.78;97977.50;5058515;28;20041;-80
2023/12/27 05:34:31;;;;;;;15.23;7.75;;;;;;;0.47;66.28;97928.81;5056324;28;20571;-76
2023/12/27 05:37:00;;;;;;;14.23;7.30;;;;;;;0.49;66.80;97925.41;5073669;28;20045;-77
2023/12/27 05:39:42;;;;;;;14.60;7.38;;;;;;;0.62;67.17;97945.91;5056126;28;20091;-79
2023/12/27 05:42:24;;;;;;;15.82;7.55;;;;;;;0.17;66.86;97887.81;5063528;28;20051;-87
2023/12/27 05:45:03;;;;;;;15.27;8.23;;;;;;;0.97;66.43;98025.34;5056301;28;20071;-89
2023/12/27 05:47:53;;;;;;;16.83;7.38;;;;;;;1.00;66.75;98015.09;5045027;28;20055;-88
2023/12/27 05:50:32;;;;;;;13.88;6.68;;;;;;;0.63;67.05;97957.84;5051737;28;20044;-89
2023/12/27 05:53:04;;;;;;;12.05;7.00;;;;;;;0.95;66.96;98021.06;5069062;28;20108;-89
2023/12/27 05:55:34;;;;;;;13.43;7.55;;;;;;;0.10;66.77;97886.94;5049642;28;20009;-86
2023/12/27 05:58:03;;;;;;;15.15;7.88;;;;;;;0.94;67.26;98027.03;5041397;28;20068;-80
2023/12/27 06:00:30;;;;;;;12.88;6.65;;;;;;;0.15;66.87;97899.72;5054280;28;20037;-76
2023/12/27 06:02:59;;;;;;;15.95;7.78;;;;;;;0.75;66.52;97998.84;5099069;28;20551;-79
2023/12/27 06:05:28;;;;;;;18.52;8.32;;;;;;;0.78;67.06;98021.88;5067974;28;20036;-87
2023/12/27 06:07:57;;;;;;;19.42;8.95;;;;;;;0.40;67.06;97956.97;5047671;28;20037;-80
2023/12/27 06:10:46;;;;;;;24.83;11.40;;;;;;;0.31;66.95;97938.19;5048655;28;20059;-81
2023/12/27 06:13:13;;;;;;;41.53;21.05;;;;;;;0.70;67.61;98001.38;5062417;28;20036;-77
2023/12/27 06:15:43;;;;;;;30.00;15.05;;;;;;;0.34;67.15;97945.81;5081442;28;20021;-83
2023/12/27 06:18:11;;;;;;;28.63;13.68;;;;;;;0.78;67.04;98024.44;5065334;28;20048;-80
2023/12/27 06:20:44;;;;;;;28.67;11.73;;;;;;;0.53;67.27;97962.09;5065128;28;20060;-82
2023/12/27 06:23:15;;;;;;;20.42;10.70;;;;;;;0.59;67.23;97957.00;5048952;28;20040;-81
2023/12/27 06:26:11;;;;;;;;;;;;;;;;;;;;;
2023/12/27 06:28:51;;;;;;;19.52;9.18;;;;;;;0.94;67.44;98006.56;5068083;28;20569;-82
2023/12/27 06:31:40;;;;;;;19.65;8.95;;;;;;;0.60;66.96;97972.34;5039075;28;20049;-86
2023/12/27 06:34:11;;;;;;;21.42;9.82;;;;;;;0.48;66.91;97946.75;5031558;28;20045;-86
2023/12/27 06:36:48;;;;;;;22.10;9.27;;;;;;;0.52;67.15;97945.03;5029442;28;20109;-81
2023/12/27 06:39:23;;;;;;;18.50;8.38;;;;;;;1.17;66.86;98033.06;5042642;28;20037;-82
2023/12/27 06:41:51;;;;;;;19.70;8.55;;;;;;;0.93;66.84;97995.44;5042784;28;20038;-84
2023/12/27 06:44:25;;;;;;;15.25;7.55;;;;;;;0.78;66.77;97977.50;5028022;28;20084;-81
2023/12/27 06:47:04;;;;;;;16.48;7.13;;;;;;;1.32;66.57;98045.03;5066946;28;20052;-82
2023/12/27 06:49:38;;;;;;;14.25;6.50;;;;;;;1.22;67.15;98024.50;5032590;28;20022;-82
2023/12/27 06:52:14;;;;;;;;;;;;;;;1.43;67.24;98049.28;5076654;28;20041;-82
2023/12/27 06:54:50;;;;;;;15.48;6.80;;;;;;;1.10;66.29;97995.47;5029988;28;19942;-84
2023/12/27 06:57:19;;;;;;;12.70;6.32;;;;;;;0.86;66.84;97951.03;5014063;28;20080;-88
2023/12/27 07:00:35;;;;;;;14.82;7.03;;;;;;;1.53;67.08;98045.00;5031525;28;20145;-82
2023/12/27 07:06:21;;;;;;;19.58;8.50;;;;;;;0.88;66.59;97904.97;5079245;28;20063;-75
2023/12/27 07:08:50;;;;;;;15.23;7.20;;;;;;;1.77;66.34;98065.50;5081084;28;20037;-80
2023/12/27 07:11:23;;;;;;;17.92;7.57;;;;;;;1.05;66.25;97930.53;5070209;28;20037;-88
2023/12/27 07:14:36;;;;;;;15.50;7.45;;;;;;;1.93;66.34;98079.16;5089673;28;20070;-82
2023/12/27 07:17:35;;;;;;;15.98;6.75;;;;;;;1.19;66.56;97912.59;5064493;28;20043;-77
2023/12/27 07:20:40;;;;;;;12.32;6.30;;;;;;;2.01;66.24;98029.53;5029530;28;20077;-75
2023/12/27 07:23:38;;;;;;;13.40;6.78;;;;;;;1.84;66.33;98007.34;5051355;28;20542;-74
2023/12/27 07:26:14;;;;;;;15.93;7.07;;;;;;;1.40;66.12;97927.09;5046748;28;20087;-73
2023/12/27 07:28:50;;;;;;;16.75;6.47;;;;;;;1.76;66.06;97975.75;5059833;28;20064;-73
2023/12/27 07:31:38;;;;;;;14.68;6.80;;;;;;;1.74;65.62;97978.28;5059908;28;20049;-75
2023/12/27 07:34:36;;;;;;;13.85;6.53;;;;;;;2.44;65.84;98072.19;5056734;28;20041;-75
2023/12/27 07:37:33;;;;;;;14.48;6.70;;;;;;;2.40;65.89;98067.06;5047708;28;20043;-75
2023/12/27 07:40:45;;;;;;;16.30;7.38;;;;;;;1.98;65.81;98004.75;5057671;28;20040;-73
2023/12/27 07:43:35;;;;;;;13.88;7.05;;;;;;;2.21;65.77;98050.84;5062739;28;20091;-74
2023/12/27 07:46:09;;;;;;;15.45;7.90;;;;;;;1.55;65.33;97951.00;5076821;28;20723;-72
2023/12/27 07:48:46;;;;;;;;;;;;;;;;;;;;;
2023/12/27 07:51:17;;;;;;;18.85;9.15;;;;;;;1.77;65.30;97978.28;5038419;28;20037;-75
2023/12/27 07:53:50;;;;;;;15.85;8.23;;;;;;;2.10;64.75;98021.81;5059282;28;20048;-74
2023/12/27 07:56:20;;;;;;;18.35;8.15;;;;;;;1.94;65.00;97990.22;5059934;28;20030;-73
2023/12/27 07:59:07;;;;;;;16.52;7.90;;;;;;;2.19;65.10;98023.50;5057532;28;20052;-75
2023/12/27 08:01:45;;;;;;;18.98;8.70;;;;;;;2.47;64.52;98074.75;5046003;28;20056;-79
2023/12/27 08:04:31;;;;;;;17.67;8.95;;;;;;;2.47;65.02;98067.88;5059830;28;20065;-76
2023/12/27 08:07:00;;;;;;;19.17;8.88;;;;;;;2.52;64.82;98075.59;5054927;28;20127;-72
2023/12/27 08:12:18;;;;;;;17.60;8.13;;;;;;;2.63;65.00;98084.09;5049250;28;20096;-73
2023/12/27 08:15:00;;;;;;;17.10;8.27;;;;;;;2.75;64.59;98085.75;5040233;28;20037;-71
2023/12/27 08:17:45;;;;;;;18.52;8.35;;;;;;;2.67;64.65;98062.66;5038480;28;20117;-72
2023/12/27 08:20:13;;;;;;;17.60;8.73;;;;;;;2.80;64.02;98084.00;5051242;28;20052;-71
2023/12/27 08:22:46;;;;;;;21.85;10.65;;;;;;;2.80;63.81;98091.72;5038014;28;20065;-73
2023/12/27 08:25:38;;;;;;;19.20;10.32;;;;;;;2.88;64.05;98121.63;5043908;28;20071;-71
2023/12/27 08:28:15;;;;;;;;;;;;;;;2.89;63.90;98111.38;5039677;28;20118;-68
2023/12/27 08:30:53;;;;;;;25.30;9.05;;;;;;;2.90;63.92;98107.06;5031048;28;19923;-68
2023/12/27 08:33:20;;;;;;;20.90;9.98;;;;;;;2.77;64.00;98083.16;5085447;28;20044;-71
2023/12/27 08:35:50;;;;;;;17.05;8.77;;;;;;;2.64;63.58;98067.81;5067751;28;20044;-65
2023/12/27 08:38:18;;;;;;;21.70;9.35;;;;;;;2.47;63.78;98052.47;5054532;28;20040;-69
2023/12/27 08:40:44;;;;;;;22.13;9.70;;;;;;;2.69;63.83;98073.78;5037980;28;20060;-71
2023/12/27 08:43:33;;;;;;;23.20;9.57;;;;;;;2.64;64.28;98052.41;5019702;28;20061;-70
2023/12/27 08:48:56;;;;;;;20.73;9.88;;;;;;;2.86;64.04;98063.44;5046664;28;20049;-67
2023/12/27 08:51:31;;;;;;;21.67;10.18;;;;;;;3.36;63.83;98116.25;5053847;28;20522;-69
2023/12/27 08:53:59;;;;;;;16.83;8.50;;;;;;;3.08;64.12;98055.59;5054922;28;20045;-71
2023/12/27 08:56:32;;;;;;;26.00;10.30;;;;;;;3.11;63.57;98058.13;5055291;28;20037;-69
2023/12/27 08:58:59;;;;;;;20.17;10.50;;;;;;;3.11;63.20;98065.00;5037452;28;20047;-67
2023/12/27 09:01:31;;;;;;;18.42;9.20;;;;;;;3.23;62.69;98106.03;5053566;28;20612;-66
2023/12/27 09:04:01;;;;;;;19.80;9.13;;;;;;;3.27;63.28;98128.28;5071222;28;20067;-70
2023/12/27 09:06:31;;;;;;;24.52;10.55;;;;;;;2.80;63.16;98034.34;5037336;28;20048;-69
2023/12/27 09:09:00;;;;;;;19.77;9.52;;;;;;;3.33;63.71;98091.41;5036892;28;20048;-68
2023/12/27 09:11:29;;;;;;;21.23;8.68;;;;;;;3.66;62.61;98112.59;5041577;28;20082;-67
2023/12/27 09:14:19;;;;;;;18.00;8.70;;;;;;;3.77;62.99;98099.66;5023069;28;20025;-66
2023/12/27 09:16:54;;;;;;;20.92;9.45;;;;;;;3.90;62.81;98093.50;5054284;28;20063;-66
2023/12/27 09:19:23;;;;;;;18.92;9.65;;;;;;;3.78;62.25;98057.63;5029311;28;20044;-67
2023/12/27 09:21:59;;;;;;;18.92;9.27;;;;;;;3.75;62.59;98048.19;5073719;28;20052;-65
2023/12/27 09:24:39;;;;;;;18.45;10.48;;;;;;;3.84;62.35;98064.41;5051711;28;20045;-66
2023/12/27 09:27:05;;;;;;;21.48;10.25;;;;;;;4.19;62.32;98115.56;5057122;28;20110;-67
2023/12/27 09:29:31;;;;;;;19.25;9.25;;;;;;;4.01;62.11;98098.56;5055382;28;20062;-71
2023/12/27 09:32:05;;;;;;;18.80;9.15;;;;;;;3.81;62.05;98062.75;5042614;28;21970;-70
2023/12/27 09:34:36;;;;;;;22.08;9.85;;;;;;;3.82;62.42;98059.31;5023805;28;20041;-68
2023/12/27 09:40:11;;;;;;;15.98;8.80;;;;;;;3.94;62.29;98050.59;4980666;28;20141;-69
2023/12/27 09:42:41;;;;;;;;;;;;;;;4.51;62.19;98124.69;4981991;28;20057;-71
2023/12/27 09:45:11;;;;;;;18.80;9.15;;;;;;;4.52;61.56;98098.03;4981363;28;19921;-68
2023/12/27 09:47:53;;;;;;;18.92;9.02;;;;;;;4.85;61.47;98128.59;4983784;28;20035;-69
2023/12/27 09:50:21;;;;;;;17.90;8.32;;;;;;;5.09;61.79;98119.66;4981469;28;20103;-69
2023/12/27 09:52:53;;;;;;;19.77;9.25;;;;;;;5.19;61.82;98107.50;4979755;28;20054;-64
2023/12/27 09:55:34;;;;;;;18.25;8.80;;;;;;;5.04;61.29;98084.50;4996939;28;20062;-70
2023/12/27 09:58:06;;;;;;;20.15;9.52;;;;;;;5.31;60.39;98116.78;4963995;28;20559;-68
2023/12/27 10:00:33;;;;;;;20.08;9.85;;;;;;;5.19;60.12;98109.22;4993591;28;20037;-69
2023/12/27 10:03:12;;;;;;;20.38;9.75;;;;;;;5.21;60.72;98112.63;4959807;28;20056;-69
2023/12/27 10:06:32;;;;;;;18.27;9.48;;;;;;;5.08;59.99;98117.97;4950035;28;20207;-65
2023/12/27 10:09:12;;;;;;;;;;;;;;;;;;;;;
2023/12/27 10:11:43;;;;;;;23.85;11.07;;;;;;;4.92;59.73;98094.09;4962792;28;20066;-72
2023/12/27 10:14:13;;;;;;;19.58;9.85;;;;;;;4.68;59.73;98077.25;4997473;28;20052;-69
2023/12/27 10:16:49;;;;;;;19.63;9.80;;;;;;;4.85;59.62;98107.09;4991854;28;20113;-72
2023/12/27 10:19:47;;;;;;;19.42;9.55;;;;;;;4.79;59.96;98108.88;4978490;28;20042;-72
2023/12/27 10:22:43;;;;;;;24.27;9.38;;;;;;;4.45;59.35;98065.50;4981008;28;20034;-70
2023/12/27 10:25:47;;;;;;;18.80;9.32;;;;;;;4.66;59.07;98120.22;4968900;28;20076;-79
2023/12/27 10:28:23;;;;;;;22.60;10.73;;;;;;;4.65;59.89;98144.28;4981057;28;20046;-71
2023/12/27 10:30:53;;;;;;;22.23;9.95;;;;;;;4.16;59.84;98076.13;4962485;28;20034;-69
2023/12/27 10:33:41;;;;;;;21.05;9.10;;;;;;;4.19;59.41;98094.97;4991685;28;20421;-69
2023/12/27 10:36:28;;;;;;;20.70;9.77;;;;;;;4.40;59.44;98138.53;4980470;28;20073;-69
2023/12/27 10:39:02;;;;;;;21.73;9.85;;;;;;;4.50;59.80;98156.47;4953225;28;20532;-67
2023/12/27 10:41:40;;;;;;;18.70;9.73;;;;;;;4.33;59.47;98163.47;4989622;28;20062;-70
2023/12/27 10:44:27;;;;;;;23.73;10.48;;;;;;;4.11;59.28;98139.69;5008075;28;20038;-70
2023/12/27 10:46:55;;;;;;;20.77;10.15;;;;;;;3.62;59.53;98095.47;4994896;28;20046;-74
2023/12/27 10:49:26;;;;;;;18.15;9.45;;;;;;;3.89;59.59;98143.28;4992387;28;20053;-75
2023/12/27 10:51:59;;;;;;;22.02;9.15;;;;;;;3.70;59.59;98128.84;4998477;28;20038;-75
2023/12/27 10:54:30;;;;;;;18.95;10.02;;;;;;;3.45;59.47;98085.31;4994976;28;20126;-75
2023/12/27 10:57:18;;;;;;;22.77;10.77;;;;;;;3.47;59.42;98099.88;4984658;28;20666;-75
2023/12/27 11:00:11;;;;;;;24.13;11.63;;;;;;;3.33;59.52;98091.41;4997677;28;20061;-74
2023/12/27 11:02:40;;;;;;;26.00;11.85;;;;;;;3.83;60.05;98179.38;4984095;28;20039;-67
2023/12/27 11:05:11;;;;;;;23.70;11.77;;;;;;;3.44;59.89;98124.75;4975771;28;20053;-69
2023/12/27 11:07:53;;;;;;;25.10;12.07;;;;;;;3.26;59.68;98105.19;4978561;28;20039;-74
2023/12/27 11:10:22;;;;;;;25.35;12.15;;;;;;;3.19;60.03;98104.38;4997788;28;20048;-71
2023/12/27 11:13:12;;;;;;;22.23;11.00;;;;;;;3.33;60.09;98131.69;4994606;28;20152;-73
2023/12/27 11:16:05;;;;;;;22.55;11.35;;;;;;;3.26;60.25;98136.88;4977643;28;20043;-69
2023/12/27 11:18:52;;;;;;;23.50;11.18;;;;;;;3.23;59.59;98136.88;4954854;28;20054;-71
2023/12/27 11:21:38;;;;;;;22.83;11.13;;;;;;;2.85;60.06;98097.69;4956905;28;20462;-68
2023/12/27 11:24:27;;;;;;;22.08;11.05;;;;;;;3.26;60.71;98184.88;4962769;28;20097;-71
2023/12/27 11:27:04;;;;;;;27.60;11.75;;;;;;;2.81;60.42;98113.13;4926050;28;20173;-70
2023/12/27 11:29:37;;;;;;;19.92;10.80;;;;;;;3.33;60.51;98209.69;4956976;28;20046;-67
2023/12/27 11:32:23;;;;;;;23.35;11.88;;;;;;;2.85;60.97;98132.81;4950135;28;20552;-71
2023/12/27 11:34:55;;;;;;;25.83;12.57;;;;;;;3.30;60.34;98200.28;4986160;28;20077;-72
2023/12/27 11:37:32;;;;;;;29.02;12.77;;;;;;;3.16;60.61;98184.91;4989557;28;20046;-73
2023/12/27 11:39:58;;;;;;;22.73;12.07;;;;;;;3.28;60.88;98196.84;4998757;28;20038;-72
2023/12/27 11:42:26;;;;;;;23.35;11.90;;;;;;;3.31;61.02;98206.28;4986215;28;20093;-70
2023/12/27 11:44:57;;;;;;;24.05;11.50;;;;;;;2.91;61.12;98144.75;4987099;28;20069;-67
2023/12/27 11:47:51;;;;;;;22.13;11.82;;;;;;;2.90;61.00;98145.63;4986986;28;20125;-69
2023/12/27 11:50:29;;;;;;;24.80;12.10;;;;;;;3.17;61.49;98204.63;5001866;28;20046;-68
2023/12/27 11:52:59;;;;;;;27.35;12.63;;;;;;;3.32;61.01;98225.97;5003189;28;21682;-68
2023/12/27 11:55:33;;;;;;;28.20;12.63;;;;;;;3.35;60.97;98237.97;4985493;28;20441;-70
2023/12/27 11:58:02;;;;;;;24.40;13.57;;;;;;;3.36;61.68;98231.97;4995009;28;20078;-69
2023/12/27 12:00:30;;;;;;;24.85;12.55;;;;;;;3.06;61.10;98190.97;4997665;28;20038;-68
2023/12/27 12:03:10;;;;;;;23.25;12.10;;;;;;;3.42;61.26;98239.66;4976471;28;20069;-69
2023/12/27 12:05:56;;;;;;;25.17;12.43;;;;;;;3.34;61.43;98243.97;4984916;28;20042;-67
2023/12/27 12:08:46;;;;;;;22.83;10.52;;;;;;;3.27;61.16;98249.13;4982655;28;20038;-68
2023/12/27 12:11:26;;;;;;;25.38;11.95;;;;;;;3.10;61.32;98213.19;4969882;28;20061;-72
2023/12/27 12:13:58;;;;;;;22.48;11.98;;;;;;;3.42;61.61;98265.38;4995667;28;20042;-70
2023/12/27 12:16:25;;;;;;;20.77;10.50;;;;;;;3.40;61.34;98270.50;4994692;28;20042;-69
2023/12/27 12:19:21;;;;;;;18.63;9.52;;;;;;;2.96;60.92;98208.16;4981754;28;20053;-71
2023/12/27 12:22:09;;;;;;;16.88;9.27;;;;;;;3.24;61.33;98264.56;4995073;28;20035;-71
2023/12/27 12:24:36;;;;;;;18.48;9.50;;;;;;;2.84;61.33;98200.47;4993608;28;20045;-72
2023/12/27 12:27:05;;;;;;;22.98;10.88;;;;;;;2.84;60.83;98197.88;4988177;28;20042;-72